This is the latest recevied weather packets stored in our database for station/object EA6MI-10. If no packets are shown the sender has not sent any weather packets the latest 10 day(s).
| Time | Temp. | Humidity | Pressure | Rain* | Wind** | Luminosity | Snow |
|---|---|---|---|---|---|---|---|
| 1778246762 | 21.11° C | 63% | 1007.4 hPa | - | - | - | - |
| 1778245862 | 21.11° C | 62% | 1007.5 hPa | - | - | - | - |
| 1778244962 | 21.11° C | 63% | 1007.5 hPa | - | - | - | - |
| 1778244062 | 20.56° C | 63% | 1007.4 hPa | - | - | - | - |
| 1778243162 | 20.56° C | 64% | 1007.4 hPa | - | - | - | - |
| 1778241362 | 20° C | 65% | 1007.7 hPa | - | - | - | - |
| 1778240462 | 20° C | 65% | 1007.6 hPa | - | - | - | - |
| 1778239557 | 20° C | 66% | 1007.7 hPa | - | - | - | - |
| 1778238656 | 19.44° C | 67% | 1007.9 hPa | - | - | - | - |
| 1778237756 | 19.44° C | 67% | 1007.9 hPa | - | - | - | - |
| 1778236856 | 18.89° C | 68% | 1007.5 hPa | - | - | - | - |
| 1778235956 | 18.89° C | 70% | 1007.7 hPa | - | - | - | - |
| 1778235056 | 18.89° C | 70% | 1008 hPa | - | - | - | - |
| 1778234155 | 18.33° C | 71% | 1007.8 hPa | - | - | - | - |
| 1778233255 | 18.33° C | 70% | 1007.7 hPa | - | - | - | - |
| 1778232355 | 18.33° C | 70% | 1008.1 hPa | - | - | - | - |
| 1778231455 | 17.78° C | 70% | 1008 hPa | - | - | - | - |
| 1778230555 | 17.78° C | 71% | 1007.9 hPa | - | - | - | - |
| 1778229655 | 17.78° C | 70% | 1007.9 hPa | - | - | - | - |
| 1778228754 | 17.78° C | 70% | 1007.8 hPa | - | - | - | - |
| 1778227854 | 17.78° C | 70% | 1007.8 hPa | - | - | - | - |
| 1778226954 | 16.67° C | 70% | 1006.2 hPa | - | - | - | - |
| 1778226053 | 17.78° C | 70% | 1007.5 hPa | - | - | - | - |
| 1778225153 | 17.78° C | 70% | 1007.5 hPa | - | - | - | - |
| 1778224253 | 17.22° C | 71% | 1007.3 hPa | - | - | - | - |
* Rain since midnight (hover to see other rain measurements)
** Current wind speed in m/s (hover to see current wind gust speed)